createdAt,value
2024-02-06T00:03:25.506Z,6.10
2024-02-06T00:07:47.372Z,6.20
2024-02-06T00:12:11.475Z,6.30
2024-02-06T00:16:33.631Z,6.30
2024-02-06T00:20:55.633Z,6.30
2024-02-06T00:25:17.618Z,6.30
2024-02-06T00:29:39.736Z,6.30
2024-02-06T00:34:01.823Z,6.30
2024-02-06T00:38:23.441Z,6.30
2024-02-06T00:42:45.486Z,6.30
2024-02-06T00:47:07.362Z,6.30
2024-02-06T00:51:29.340Z,6.30
2024-02-06T00:55:51.188Z,6.30
2024-02-06T01:00:13.987Z,6.40
2024-02-06T01:04:36.014Z,6.40
2024-02-06T01:08:57.774Z,6.30
2024-02-06T01:13:19.826Z,6.40
2024-02-06T01:17:41.868Z,6.30
2024-02-06T01:22:04.419Z,6.30
2024-02-06T01:26:26.472Z,6.40
2024-02-06T01:30:49.485Z,6.40
2024-02-06T01:35:13.684Z,6.40
2024-02-06T01:39:35.517Z,6.40
2024-02-06T01:43:57.607Z,6.40
2024-02-06T01:48:20.244Z,6.40
2024-02-06T01:52:42.473Z,6.40
2024-02-06T01:57:04.528Z,6.40
2024-02-06T02:01:26.551Z,6.40
2024-02-06T02:05:48.934Z,6.40
2024-02-06T02:10:11.307Z,6.40
2024-02-06T02:14:33.321Z,6.40
2024-02-06T02:18:57.304Z,6.50
2024-02-06T02:23:25.406Z,6.50
2024-02-06T02:27:51.492Z,6.50
2024-02-06T02:32:14.625Z,6.50
2024-02-06T02:36:38.805Z,6.50
2024-02-06T02:41:00.926Z,6.50
2024-02-06T02:45:22.886Z,6.50
2024-02-06T02:49:44.658Z,6.50
2024-02-06T02:54:06.719Z,6.50
2024-02-06T02:58:28.611Z,6.50
2024-02-06T03:02:50.627Z,6.40
2024-02-06T03:07:12.572Z,6.50
2024-02-06T03:11:34.596Z,6.40
2024-02-06T03:15:56.897Z,6.40
2024-02-06T03:20:20.579Z,6.40
2024-02-06T03:24:42.619Z,6.40
2024-02-06T03:29:04.858Z,6.40
2024-02-06T03:33:26.758Z,6.50
2024-02-06T03:37:48.943Z,6.40
2024-02-06T03:42:10.875Z,6.40
2024-02-06T03:46:33.047Z,6.50
2024-02-06T03:50:55.075Z,6.50
2024-02-06T03:55:19.531Z,6.50
2024-02-06T03:59:41.230Z,6.50
2024-02-06T04:04:03.176Z,6.40
2024-02-06T04:08:25.260Z,6.50
2024-02-06T04:12:47.178Z,6.40
2024-02-06T04:17:09.307Z,6.40
2024-02-06T04:21:31.184Z,6.50
2024-02-06T04:25:53.422Z,6.50
2024-02-06T04:30:15.859Z,6.50
2024-02-06T04:34:37.582Z,6.50
2024-02-06T04:38:59.364Z,6.50
2024-02-06T04:43:24.671Z,6.50
2024-02-06T04:47:46.413Z,6.50
2024-02-06T04:52:08.662Z,6.50
2024-02-06T04:56:30.641Z,6.50
2024-02-06T05:00:52.729Z,6.50
2024-02-06T05:05:15.292Z,6.50
2024-02-06T05:09:37.696Z,6.50
2024-02-06T05:13:59.944Z,6.50
2024-02-06T05:18:21.610Z,6.50
2024-02-06T05:22:43.593Z,6.60
2024-02-06T05:27:05.835Z,6.70
2024-02-06T05:31:28.262Z,6.90
2024-02-06T05:35:53.407Z,6.90
2024-02-06T05:40:16.776Z,6.80
2024-02-06T05:44:39.580Z,6.70
2024-02-06T05:49:01.597Z,6.60
2024-02-06T05:53:23.524Z,6.60
2024-02-06T05:57:45.684Z,6.60
2024-02-06T06:02:07.908Z,6.60
2024-02-06T06:06:30.024Z,6.60
2024-02-06T06:10:51.809Z,6.70
2024-02-06T06:15:14.630Z,6.60
2024-02-06T06:19:36.890Z,6.60
2024-02-06T06:23:58.695Z,6.70
2024-02-06T06:28:20.502Z,6.70
2024-02-06T06:32:42.947Z,6.70
2024-02-06T06:37:05.814Z,6.60
2024-02-06T06:41:27.787Z,6.70
2024-02-06T06:45:49.672Z,6.70
2024-02-06T06:50:12.179Z,6.70
2024-02-06T06:54:35.444Z,6.70
2024-02-06T06:58:57.436Z,6.70
2024-02-06T07:07:41.978Z,6.60
2024-02-06T07:12:05.115Z,6.70
2024-02-06T07:16:27.114Z,6.70
2024-02-06T07:20:49.263Z,6.70
2024-02-06T07:25:11.028Z,6.70
2024-02-06T07:29:33.156Z,6.70
2024-02-06T07:33:55.473Z,6.70
2024-02-06T07:38:17.340Z,6.70
2024-02-06T07:42:39.254Z,6.80
2024-02-06T07:47:01.148Z,6.80
2024-02-06T07:51:23.782Z,6.70
2024-02-06T07:55:46.124Z,6.70
2024-02-06T08:00:10.570Z,6.80
2024-02-06T08:04:34.038Z,6.70
2024-02-06T08:08:56.095Z,6.70
2024-02-06T08:13:18.201Z,6.70
2024-02-06T08:17:48.606Z,6.80
2024-02-06T08:22:11.085Z,6.80
2024-02-06T08:26:33.078Z,6.80
2024-02-06T08:30:57.326Z,6.80
2024-02-06T08:35:21.361Z,6.80
2024-02-06T08:39:43.136Z,6.90
2024-02-06T08:44:05.746Z,6.90
2024-02-06T08:48:34.086Z,6.90
2024-02-06T08:52:58.029Z,6.90
2024-02-06T08:57:20.313Z,6.80
2024-02-06T09:01:43.828Z,6.90
2024-02-06T09:06:07.207Z,7.00
2024-02-06T09:10:29.371Z,7.10
2024-02-06T09:14:51.461Z,7.20
2024-02-06T09:19:13.642Z,7.30
2024-02-06T09:23:35.438Z,7.40
2024-02-06T09:27:58.570Z,7.50
2024-02-06T09:32:20.287Z,7.60
2024-02-06T09:36:47.148Z,7.50
2024-02-06T09:41:13.750Z,7.50
2024-02-06T09:45:36.717Z,7.50
2024-02-06T09:49:58.968Z,7.60
2024-02-06T09:54:26.753Z,7.60
2024-02-06T09:58:48.805Z,7.80
2024-02-06T10:03:18.427Z,8.00
2024-02-06T10:07:40.735Z,7.90
2024-02-06T10:12:03.896Z,8.00
2024-02-06T10:16:25.677Z,7.90
2024-02-06T10:20:49.253Z,7.90
2024-02-06T10:25:12.980Z,7.90
2024-02-06T10:29:35.962Z,8.00
2024-02-06T10:34:13.646Z,7.90
2024-02-06T10:38:36.033Z,7.80
2024-02-06T10:43:32.712Z,7.70
2024-02-06T10:47:40.615Z,7.70
2024-02-06T10:52:09.294Z,7.60
2024-02-06T10:56:35.212Z,7.70
2024-02-06T11:00:57.906Z,7.70
2024-02-06T11:06:18.481Z,7.70
2024-02-06T11:10:51.042Z,7.70
2024-02-06T11:15:14.248Z,7.70
2024-02-06T11:19:59.537Z,7.70
2024-02-06T11:24:23.266Z,7.80
2024-02-06T11:28:45.745Z,7.80
2024-02-06T11:33:11.605Z,7.80
2024-02-06T11:37:33.395Z,7.80
2024-02-06T11:42:02.266Z,7.80
2024-02-06T11:46:24.693Z,7.90
2024-02-06T11:50:47.205Z,7.80
2024-02-06T11:55:09.891Z,7.80
2024-02-06T11:59:31.820Z,7.80
2024-02-06T12:04:01.130Z,7.70
2024-02-06T12:08:26.012Z,7.70
2024-02-06T12:12:49.122Z,7.70
2024-02-06T12:17:11.521Z,7.70
2024-02-06T12:21:35.102Z,7.70
2024-02-06T12:25:56.997Z,7.70
2024-02-06T12:30:30.144Z,7.70
2024-02-06T12:34:53.519Z,7.60
2024-02-06T12:39:18.638Z,7.60
2024-02-06T12:43:40.703Z,7.60
2024-02-06T12:48:04.673Z,7.60
2024-02-06T12:52:26.871Z,7.60
2024-02-06T12:56:49.397Z,7.60
2024-02-06T13:01:12.153Z,7.60
2024-02-06T13:05:36.576Z,7.60
2024-02-06T13:10:05.102Z,7.60
2024-02-06T13:14:27.620Z,7.70
2024-02-06T13:19:02.359Z,7.90
2024-02-06T13:23:25.611Z,8.10
2024-02-06T13:27:47.295Z,8.20
2024-02-06T13:32:09.514Z,8.30
2024-02-06T13:36:34.720Z,8.20
2024-02-06T13:40:57.081Z,8.10
2024-02-06T13:45:19.294Z,8.00
2024-02-06T13:49:41.601Z,7.90
2024-02-06T13:54:04.152Z,7.80
2024-02-06T13:58:26.183Z,7.80
2024-02-06T14:02:48.740Z,7.80
2024-02-06T14:07:17.757Z,7.80
2024-02-06T14:11:43.715Z,7.80
2024-02-06T14:16:06.423Z,7.80
2024-02-06T14:20:28.761Z,7.90
2024-02-06T14:24:51.182Z,8.00
2024-02-06T14:29:13.237Z,8.00
2024-02-06T14:33:35.407Z,8.00
2024-02-06T14:37:57.491Z,8.00
2024-02-06T14:42:19.665Z,8.00
2024-02-06T14:46:41.768Z,8.00
2024-02-06T14:51:04.077Z,7.90
2024-02-06T14:55:25.914Z,7.90
2024-02-06T14:59:47.801Z,7.90
2024-02-06T15:04:09.870Z,7.80
2024-02-06T15:08:31.909Z,7.80
2024-02-06T15:12:54.099Z,7.90
2024-02-06T15:17:16.176Z,7.90
2024-02-06T15:21:38.168Z,7.90
2024-02-06T15:26:01.045Z,7.90
2024-02-06T15:30:23.225Z,7.90
2024-02-06T15:34:45.359Z,7.90
2024-02-06T15:39:10.913Z,7.90
2024-02-06T15:43:33.000Z,7.90
2024-02-06T15:47:55.059Z,7.80
2024-02-06T15:52:17.219Z,7.80
2024-02-06T15:56:39.271Z,7.80
2024-02-06T16:01:01.744Z,7.80
2024-02-06T16:05:24.115Z,7.70
2024-02-06T16:09:48.567Z,7.70
2024-02-06T16:14:12.331Z,7.70
2024-02-06T16:18:36.329Z,7.70
2024-02-06T16:22:58.237Z,7.70
2024-02-06T16:27:21.008Z,7.80
2024-02-06T16:31:43.199Z,7.80
2024-02-06T16:36:15.486Z,7.70
2024-02-06T16:40:40.272Z,7.70
2024-02-06T16:45:01.993Z,7.70
2024-02-06T16:49:24.260Z,7.70
2024-02-06T16:53:46.116Z,7.70
2024-02-06T16:58:08.777Z,7.70
2024-02-06T17:02:30.990Z,7.70
2024-02-06T17:06:52.681Z,7.70
2024-02-06T17:11:14.726Z,7.80
2024-02-06T17:15:36.791Z,7.70
2024-02-06T17:19:58.781Z,7.80
2024-02-06T17:24:23.174Z,7.80
2024-02-06T17:28:45.104Z,7.80
2024-02-06T17:33:11.159Z,7.80
2024-02-06T17:37:33.494Z,7.80
2024-02-06T17:41:55.906Z,7.80
2024-02-06T17:46:18.316Z,7.80
2024-02-06T17:50:40.479Z,7.90
2024-02-06T17:55:02.408Z,7.80
2024-02-06T17:59:25.198Z,7.90
2024-02-06T18:03:47.268Z,7.90
2024-02-06T18:08:09.469Z,7.90
2024-02-06T18:12:31.416Z,7.90
2024-02-06T18:17:11.820Z,7.90
2024-02-06T18:21:33.691Z,8.00
2024-02-06T18:25:56.856Z,7.90
2024-02-06T18:30:20.850Z,7.90
2024-02-06T18:34:46.362Z,7.90
2024-02-06T18:39:08.668Z,7.90
2024-02-06T18:43:35.948Z,7.90
2024-02-06T18:47:58.024Z,7.90
2024-02-06T18:52:20.071Z,7.90
2024-02-06T18:56:42.633Z,7.90
2024-02-06T19:01:05.073Z,7.90
2024-02-06T19:05:27.202Z,7.90
2024-02-06T19:09:49.053Z,7.90
2024-02-06T19:14:11.228Z,7.90
2024-02-06T19:18:33.231Z,7.90
2024-02-06T19:22:55.388Z,7.90
2024-02-06T19:27:17.562Z,7.90
2024-02-06T19:31:46.760Z,8.00
2024-02-06T19:36:11.672Z,7.90
2024-02-06T19:40:34.178Z,7.90
2024-02-06T19:45:03.646Z,7.90
2024-02-06T19:49:25.879Z,7.90
2024-02-06T19:53:48.415Z,7.90
2024-02-06T19:58:14.054Z,7.90
2024-02-06T20:02:36.040Z,7.90
2024-02-06T20:06:58.156Z,7.90
2024-02-06T20:11:23.935Z,7.90
2024-02-06T20:15:59.438Z,7.90
2024-02-06T20:20:25.380Z,7.90
2024-02-06T20:29:34.633Z,7.70
2024-02-06T20:33:56.556Z,7.80
2024-02-06T20:38:18.628Z,7.80
2024-02-06T20:42:41.173Z,7.80
2024-02-06T20:47:04.022Z,7.80
2024-02-06T20:51:25.925Z,7.80
2024-02-06T20:55:48.411Z,7.90
2024-02-06T21:00:12.807Z,7.90
2024-02-06T21:04:34.678Z,7.90
2024-02-06T21:08:56.701Z,7.80
2024-02-06T21:13:20.480Z,7.70
2024-02-06T21:17:42.864Z,7.60
2024-02-06T21:22:05.262Z,7.50
2024-02-06T21:26:27.711Z,7.60
2024-02-06T21:30:49.646Z,7.60
2024-02-06T21:35:12.211Z,7.70
2024-02-06T21:39:34.326Z,7.80
2024-02-06T21:43:56.367Z,7.80
2024-02-06T21:48:18.653Z,7.80
2024-02-06T21:52:40.678Z,7.80
2024-02-06T21:57:02.668Z,7.90
2024-02-06T22:01:25.095Z,7.90
2024-02-06T22:05:48.589Z,7.80
2024-02-06T22:10:11.285Z,7.70
2024-02-06T22:14:34.158Z,7.80
2024-02-06T22:18:56.110Z,7.90
2024-02-06T22:23:18.475Z,7.90
2024-02-06T22:27:40.276Z,7.80
2024-02-06T22:32:02.229Z,7.80
2024-02-06T22:36:24.251Z,7.80
2024-02-06T22:40:47.830Z,7.80
2024-02-06T22:45:12.501Z,7.70
2024-02-06T22:49:34.516Z,7.70
2024-02-06T22:53:56.471Z,7.70
2024-02-06T22:58:18.178Z,7.70
2024-02-06T23:02:40.283Z,7.70
2024-02-06T23:07:02.306Z,7.70
2024-02-06T23:11:24.455Z,7.70
2024-02-06T23:15:46.607Z,7.70
2024-02-06T23:20:09.989Z,7.70
2024-02-06T23:24:31.936Z,7.70
2024-02-06T23:28:54.214Z,7.70
2024-02-06T23:33:16.314Z,7.70
2024-02-06T23:37:38.394Z,7.70
2024-02-06T23:42:00.601Z,7.60
2024-02-06T23:46:22.487Z,7.70
2024-02-06T23:50:45.794Z,7.70
2024-02-06T23:55:08.060Z,7.80
2024-02-06T23:59:29.807Z,7.80
